sensor_id;sensor_type;location;lat;lon;timestamp;P1;durP1;ratioP1;P2;durP2;ratioP2
62523;SDS011;53689;56.878;60.672;2024-02-15T00:01:12;5.70;;;3.00;;
62523;SDS011;53689;56.878;60.672;2024-02-15T00:03:40;5.40;;;3.28;;
62523;SDS011;53689;56.878;60.672;2024-02-15T00:06:08;5.22;;;3.20;;
62523;SDS011;53689;56.878;60.672;2024-02-15T00:08:36;5.82;;;3.90;;
62523;SDS011;53689;56.878;60.672;2024-02-15T00:11:04;5.97;;;3.40;;
62523;SDS011;53689;56.878;60.672;2024-02-15T00:13:33;6.75;;;3.53;;
62523;SDS011;53689;56.878;60.672;2024-02-15T00:16:01;5.93;;;3.60;;
62523;SDS011;53689;56.878;60.672;2024-02-15T00:18:29;6.53;;;3.40;;
62523;SDS011;53689;56.878;60.672;2024-02-15T00:23:26;6.40;;;3.50;;
62523;SDS011;53689;56.878;60.672;2024-02-15T00:25:54;6.60;;;4.03;;
62523;SDS011;53689;56.878;60.672;2024-02-15T00:28:22;4.78;;;2.97;;
62523;SDS011;53689;56.878;60.672;2024-02-15T00:30:51;6.07;;;3.85;;
62523;SDS011;53689;56.878;60.672;2024-02-15T00:33:19;5.68;;;3.17;;
62523;SDS011;53689;56.878;60.672;2024-02-15T00:35:48;5.18;;;3.08;;
62523;SDS011;53689;56.878;60.672;2024-02-15T00:38:15;4.97;;;3.05;;
62523;SDS011;53689;56.878;60.672;2024-02-15T00:40:43;4.88;;;3.00;;
62523;SDS011;53689;56.878;60.672;2024-02-15T00:43:11;4.53;;;2.80;;
62523;SDS011;53689;56.878;60.672;2024-02-15T00:45:39;4.90;;;3.10;;
62523;SDS011;53689;56.878;60.672;2024-02-15T00:48:08;5.47;;;3.25;;
62523;SDS011;53689;56.878;60.672;2024-02-15T00:50:37;5.63;;;3.13;;
62523;SDS011;53689;56.878;60.672;2024-02-15T00:53:05;5.20;;;2.67;;
62523;SDS011;53689;56.878;60.672;2024-02-15T00:55:33;5.35;;;3.30;;
62523;SDS011;53689;56.878;60.672;2024-02-15T00:58:00;4.93;;;3.00;;
62523;SDS011;53689;56.878;60.672;2024-02-15T01:00:28;5.18;;;3.40;;
62523;SDS011;53689;56.878;60.672;2024-02-15T01:02:56;5.15;;;3.20;;
62523;SDS011;53689;56.878;60.672;2024-02-15T01:05:27;5.15;;;3.05;;
62523;SDS011;53689;56.878;60.672;2024-02-15T01:07:55;5.55;;;3.30;;
62523;SDS011;53689;56.878;60.672;2024-02-15T01:10:23;5.57;;;3.35;;
62523;SDS011;53689;56.878;60.672;2024-02-15T01:12:51;4.90;;;3.13;;
62523;SDS011;53689;56.878;60.672;2024-02-15T01:15:19;4.53;;;3.20;;
62523;SDS011;53689;56.878;60.672;2024-02-15T01:17:48;5.78;;;3.22;;
62523;SDS011;53689;56.878;60.672;2024-02-15T01:20:15;6.22;;;3.50;;
62523;SDS011;53689;56.878;60.672;2024-02-15T01:22:45;5.43;;;3.35;;
62523;SDS011;53689;56.878;60.672;2024-02-15T01:25:13;7.15;;;3.58;;
62523;SDS011;53689;56.878;60.672;2024-02-15T01:27:41;5.88;;;3.58;;
62523;SDS011;53689;56.878;60.672;2024-02-15T01:30:10;6.30;;;3.67;;
62523;SDS011;53689;56.878;60.672;2024-02-15T01:32:39;6.35;;;3.83;;
62523;SDS011;53689;56.878;60.672;2024-02-15T01:35:07;6.18;;;3.80;;
62523;SDS011;53689;56.878;60.672;2024-02-15T01:37:35;6.47;;;3.65;;
62523;SDS011;53689;56.878;60.672;2024-02-15T01:40:05;7.03;;;3.92;;
62523;SDS011;53689;56.878;60.672;2024-02-15T01:42:34;6.60;;;4.30;;
62523;SDS011;53689;56.878;60.672;2024-02-15T01:45:01;7.32;;;4.65;;
62523;SDS011;53689;56.878;60.672;2024-02-15T01:47:30;6.70;;;4.38;;
62523;SDS011;53689;56.878;60.672;2024-02-15T01:49:58;7.18;;;4.20;;
62523;SDS011;53689;56.878;60.672;2024-02-15T01:52:27;6.57;;;3.97;;
62523;SDS011;53689;56.878;60.672;2024-02-15T01:54:55;7.13;;;4.50;;
62523;SDS011;53689;56.878;60.672;2024-02-15T01:57:26;5.25;;;3.55;;
62523;SDS011;53689;56.878;60.672;2024-02-15T01:59:54;7.68;;;4.07;;
62523;SDS011;53689;56.878;60.672;2024-02-15T02:02:23;5.85;;;3.70;;
62523;SDS011;53689;56.878;60.672;2024-02-15T02:04:54;7.03;;;4.35;;
62523;SDS011;53689;56.878;60.672;2024-02-15T02:07:22;6.30;;;3.80;;
62523;SDS011;53689;56.878;60.672;2024-02-15T02:09:50;6.03;;;3.78;;
62523;SDS011;53689;56.878;60.672;2024-02-15T02:12:18;6.75;;;4.38;;
62523;SDS011;53689;56.878;60.672;2024-02-15T02:14:48;6.00;;;3.95;;
62523;SDS011;53689;56.878;60.672;2024-02-15T02:17:16;8.98;;;5.57;;
62523;SDS011;53689;56.878;60.672;2024-02-15T02:19:44;9.35;;;6.28;;
62523;SDS011;53689;56.878;60.672;2024-02-15T02:22:12;7.85;;;4.90;;
62523;SDS011;53689;56.878;60.672;2024-02-15T02:27:23;9.35;;;4.60;;
62523;SDS011;53689;56.878;60.672;2024-02-15T02:32:20;8.60;;;5.25;;
62523;SDS011;53689;56.878;60.672;2024-02-15T02:34:49;7.07;;;4.35;;
62523;SDS011;53689;56.878;60.672;2024-02-15T02:37:17;10.30;;;5.03;;
62523;SDS011;53689;56.878;60.672;2024-02-15T02:39:44;7.72;;;4.95;;
62523;SDS011;53689;56.878;60.672;2024-02-15T02:42:14;9.88;;;5.53;;
62523;SDS011;53689;56.878;60.672;2024-02-15T02:44:42;10.45;;;7.00;;
62523;SDS011;53689;56.878;60.672;2024-02-15T02:47:10;11.75;;;7.97;;
62523;SDS011;53689;56.878;60.672;2024-02-15T02:49:37;9.23;;;6.13;;
62523;SDS011;53689;56.878;60.672;2024-02-15T02:52:06;10.93;;;7.50;;
62523;SDS011;53689;56.878;60.672;2024-02-15T02:54:34;10.02;;;6.70;;
62523;SDS011;53689;56.878;60.672;2024-02-15T02:57:02;9.35;;;7.07;;
62523;SDS011;53689;56.878;60.672;2024-02-15T02:59:32;12.00;;;7.53;;
62523;SDS011;53689;56.878;60.672;2024-02-15T03:02:01;10.75;;;7.05;;
62523;SDS011;53689;56.878;60.672;2024-02-15T03:04:34;12.05;;;7.53;;
62523;SDS011;53689;56.878;60.672;2024-02-15T03:07:02;10.88;;;7.45;;
62523;SDS011;53689;56.878;60.672;2024-02-15T03:09:30;10.18;;;6.57;;
62523;SDS011;53689;56.878;60.672;2024-02-15T03:11:58;9.57;;;6.60;;
62523;SDS011;53689;56.878;60.672;2024-02-15T03:14:26;10.43;;;5.95;;
62523;SDS011;53689;56.878;60.672;2024-02-15T03:16:56;10.02;;;7.05;;
62523;SDS011;53689;56.878;60.672;2024-02-15T03:19:24;8.88;;;5.55;;
62523;SDS011;53689;56.878;60.672;2024-02-15T03:21:52;9.48;;;6.28;;
62523;SDS011;53689;56.878;60.672;2024-02-15T03:24:20;10.45;;;7.22;;
62523;SDS011;53689;56.878;60.672;2024-02-15T03:26:48;8.90;;;6.00;;
62523;SDS011;53689;56.878;60.672;2024-02-15T03:29:16;11.13;;;7.07;;
62523;SDS011;53689;56.878;60.672;2024-02-15T03:31:44;10.02;;;6.72;;
62523;SDS011;53689;56.878;60.672;2024-02-15T03:34:13;10.45;;;6.43;;
62523;SDS011;53689;56.878;60.672;2024-02-15T03:36:41;10.48;;;6.32;;
62523;SDS011;53689;56.878;60.672;2024-02-15T03:39:09;11.00;;;6.53;;
62523;SDS011;53689;56.878;60.672;2024-02-15T03:41:37;12.70;;;7.07;;
62523;SDS011;53689;56.878;60.672;2024-02-15T03:44:05;9.82;;;6.15;;
62523;SDS011;53689;56.878;60.672;2024-02-15T03:46:33;8.70;;;5.45;;
62523;SDS011;53689;56.878;60.672;2024-02-15T03:49:01;9.75;;;5.70;;
62523;SDS011;53689;56.878;60.672;2024-02-15T03:51:30;10.57;;;6.38;;
62523;SDS011;53689;56.878;60.672;2024-02-15T03:53:58;10.32;;;6.20;;
62523;SDS011;53689;56.878;60.672;2024-02-15T03:56:26;9.43;;;6.07;;
62523;SDS011;53689;56.878;60.672;2024-02-15T03:58:53;8.48;;;5.57;;
62523;SDS011;53689;56.878;60.672;2024-02-15T04:01:21;8.45;;;5.80;;
62523;SDS011;53689;56.878;60.672;2024-02-15T04:03:49;9.50;;;6.30;;
62523;SDS011;53689;56.878;60.672;2024-02-15T04:06:17;8.93;;;5.75;;
62523;SDS011;53689;56.878;60.672;2024-02-15T04:08:47;11.35;;;6.80;;
62523;SDS011;53689;56.878;60.672;2024-02-15T04:11:14;11.05;;;7.78;;
62523;SDS011;53689;56.878;60.672;2024-02-15T04:13:42;12.25;;;7.53;;
62523;SDS011;53689;56.878;60.672;2024-02-15T04:16:10;11.70;;;7.70;;
62523;SDS011;53689;56.878;60.672;2024-02-15T04:18:38;11.50;;;7.20;;
62523;SDS011;53689;56.878;60.672;2024-02-15T04:21:06;10.68;;;6.85;;
62523;SDS011;53689;56.878;60.672;2024-02-15T04:23:34;10.00;;;6.65;;
62523;SDS011;53689;56.878;60.672;2024-02-15T04:26:04;12.48;;;6.90;;
62523;SDS011;53689;56.878;60.672;2024-02-15T04:28:32;12.88;;;8.15;;
62523;SDS011;53689;56.878;60.672;2024-02-15T04:31:00;15.57;;;8.68;;
62523;SDS011;53689;56.878;60.672;2024-02-15T04:33:28;14.52;;;9.38;;
62523;SDS011;53689;56.878;60.672;2024-02-15T04:35:56;13.40;;;7.25;;
62523;SDS011;53689;56.878;60.672;2024-02-15T04:38:24;13.13;;;8.02;;
62523;SDS011;53689;56.878;60.672;2024-02-15T04:40:52;15.52;;;9.23;;
62523;SDS011;53689;56.878;60.672;2024-02-15T04:43:21;17.38;;;8.88;;
62523;SDS011;53689;56.878;60.672;2024-02-15T04:45:50;16.48;;;9.77;;
62523;SDS011;53689;56.878;60.672;2024-02-15T04:48:18;20.27;;;10.05;;
62523;SDS011;53689;56.878;60.672;2024-02-15T04:50:46;15.00;;;9.05;;
62523;SDS011;53689;56.878;60.672;2024-02-15T04:53:13;17.33;;;9.10;;
62523;SDS011;53689;56.878;60.672;2024-02-15T04:55:41;15.82;;;9.27;;
62523;SDS011;53689;56.878;60.672;2024-02-15T04:58:09;17.23;;;10.00;;
62523;SDS011;53689;56.878;60.672;2024-02-15T05:00:38;21.17;;;10.85;;
62523;SDS011;53689;56.878;60.672;2024-02-15T05:03:06;19.70;;;10.52;;
62523;SDS011;53689;56.878;60.672;2024-02-15T05:05:35;17.17;;;9.38;;
62523;SDS011;53689;56.878;60.672;2024-02-15T05:08:03;18.73;;;11.00;;
62523;SDS011;53689;56.878;60.672;2024-02-15T05:10:31;22.77;;;12.18;;
62523;SDS011;53689;56.878;60.672;2024-02-15T05:12:59;17.42;;;11.57;;
62523;SDS011;53689;56.878;60.672;2024-02-15T05:15:27;23.27;;;12.70;;
62523;SDS011;53689;56.878;60.672;2024-02-15T05:17:56;20.58;;;12.80;;
62523;SDS011;53689;56.878;60.672;2024-02-15T05:20:24;26.30;;;14.77;;
62523;SDS011;53689;56.878;60.672;2024-02-15T05:22:52;29.15;;;14.98;;
62523;SDS011;53689;56.878;60.672;2024-02-15T05:25:20;19.33;;;11.43;;
62523;SDS011;53689;56.878;60.672;2024-02-15T05:27:48;23.30;;;12.52;;
62523;SDS011;53689;56.878;60.672;2024-02-15T05:30:16;20.17;;;12.02;;
62523;SDS011;53689;56.878;60.672;2024-02-15T05:32:44;24.70;;;12.65;;
62523;SDS011;53689;56.878;60.672;2024-02-15T05:35:14;18.58;;;11.93;;
62523;SDS011;53689;56.878;60.672;2024-02-15T05:37:42;23.38;;;12.70;;
62523;SDS011;53689;56.878;60.672;2024-02-15T05:40:11;23.38;;;12.95;;
62523;SDS011;53689;56.878;60.672;2024-02-15T05:42:39;25.30;;;13.50;;
62523;SDS011;53689;56.878;60.672;2024-02-15T05:47:57;28.52;;;13.80;;
62523;SDS011;53689;56.878;60.672;2024-02-15T05:50:27;27.13;;;12.73;;
62523;SDS011;53689;56.878;60.672;2024-02-15T05:52:55;23.80;;;12.68;;
62523;SDS011;53689;56.878;60.672;2024-02-15T05:55:24;20.73;;;12.38;;
62523;SDS011;53689;56.878;60.672;2024-02-15T05:57:52;25.75;;;13.15;;
62523;SDS011;53689;56.878;60.672;2024-02-15T06:00:20;29.00;;;14.88;;
62523;SDS011;53689;56.878;60.672;2024-02-15T06:05:18;27.55;;;15.00;;
62523;SDS011;53689;56.878;60.672;2024-02-15T06:07:47;26.52;;;14.73;;
62523;SDS011;53689;56.878;60.672;2024-02-15T06:10:16;30.65;;;18.17;;
62523;SDS011;53689;56.878;60.672;2024-02-15T06:12:43;26.77;;;15.38;;
62523;SDS011;53689;56.878;60.672;2024-02-15T06:15:11;28.95;;;14.70;;
62523;SDS011;53689;56.878;60.672;2024-02-15T06:17:39;29.17;;;15.00;;
62523;SDS011;53689;56.878;60.672;2024-02-15T06:20:08;25.80;;;13.75;;
62523;SDS011;53689;56.878;60.672;2024-02-15T06:22:38;25.95;;;14.50;;
62523;SDS011;53689;56.878;60.672;2024-02-15T06:25:08;27.77;;;15.50;;
62523;SDS011;53689;56.878;60.672;2024-02-15T06:27:35;25.77;;;15.73;;
62523;SDS011;53689;56.878;60.672;2024-02-15T06:30:04;26.15;;;15.05;;
62523;SDS011;53689;56.878;60.672;2024-02-15T06:32:33;24.52;;;14.48;;
62523;SDS011;53689;56.878;60.672;2024-02-15T06:35:01;23.25;;;13.52;;
62523;SDS011;53689;56.878;60.672;2024-02-15T06:37:35;24.88;;;12.85;;
62523;SDS011;53689;56.878;60.672;2024-02-15T06:40:05;26.85;;;13.75;;
62523;SDS011;53689;56.878;60.672;2024-02-15T06:42:36;25.10;;;13.57;;
62523;SDS011;53689;56.878;60.672;2024-02-15T06:45:04;22.27;;;12.93;;
62523;SDS011;53689;56.878;60.672;2024-02-15T06:47:32;26.52;;;14.20;;
62523;SDS011;53689;56.878;60.672;2024-02-15T06:50:01;27.30;;;13.70;;
62523;SDS011;53689;56.878;60.672;2024-02-15T06:52:28;24.27;;;13.52;;
62523;SDS011;53689;56.878;60.672;2024-02-15T06:54:56;25.63;;;11.63;;
62523;SDS011;53689;56.878;60.672;2024-02-15T06:57:26;21.65;;;11.75;;
62523;SDS011;53689;56.878;60.672;2024-02-15T06:59:54;25.70;;;12.48;;
62523;SDS011;53689;56.878;60.672;2024-02-15T07:02:21;22.95;;;12.70;;
62523;SDS011;53689;56.878;60.672;2024-02-15T07:04:49;27.17;;;14.80;;
62523;SDS011;53689;56.878;60.672;2024-02-15T07:07:17;28.48;;;13.82;;
62523;SDS011;53689;56.878;60.672;2024-02-15T07:09:45;24.92;;;11.93;;
62523;SDS011;53689;56.878;60.672;2024-02-15T07:12:13;23.45;;;12.82;;
62523;SDS011;53689;56.878;60.672;2024-02-15T07:14:43;22.67;;;12.32;;
62523;SDS011;53689;56.878;60.672;2024-02-15T07:19:41;22.15;;;12.98;;
62523;SDS011;53689;56.878;60.672;2024-02-15T07:22:10;22.92;;;14.07;;
62523;SDS011;53689;56.878;60.672;2024-02-15T07:24:38;26.83;;;13.48;;
62523;SDS011;53689;56.878;60.672;2024-02-15T07:27:06;20.75;;;12.75;;
62523;SDS011;53689;56.878;60.672;2024-02-15T07:29:34;24.45;;;12.48;;
62523;SDS011;53689;56.878;60.672;2024-02-15T07:32:04;27.95;;;14.13;;
62523;SDS011;53689;56.878;60.672;2024-02-15T07:37:01;21.80;;;12.52;;
62523;SDS011;53689;56.878;60.672;2024-02-15T07:39:30;24.48;;;12.82;;
62523;SDS011;53689;56.878;60.672;2024-02-15T07:41:58;20.95;;;11.70;;
62523;SDS011;53689;56.878;60.672;2024-02-15T07:44:26;25.38;;;12.45;;
62523;SDS011;53689;56.878;60.672;2024-02-15T07:46:54;23.40;;;12.68;;
62523;SDS011;53689;56.878;60.672;2024-02-15T07:49:23;30.35;;;15.40;;
62523;SDS011;53689;56.878;60.672;2024-02-15T07:51:51;28.08;;;13.32;;
62523;SDS011;53689;56.878;60.672;2024-02-15T07:54:20;24.33;;;13.82;;
62523;SDS011;53689;56.878;60.672;2024-02-15T07:56:48;31.08;;;17.02;;
62523;SDS011;53689;56.878;60.672;2024-02-15T07:59:17;30.23;;;17.08;;
62523;SDS011;53689;56.878;60.672;2024-02-15T08:01:46;27.80;;;16.00;;
62523;SDS011;53689;56.878;60.672;2024-02-15T08:04:14;30.08;;;16.30;;
62523;SDS011;53689;56.878;60.672;2024-02-15T08:06:45;25.48;;;14.82;;
62523;SDS011;53689;56.878;60.672;2024-02-15T08:09:14;26.92;;;15.50;;
62523;SDS011;53689;56.878;60.672;2024-02-15T08:11:42;30.48;;;17.38;;
62523;SDS011;53689;56.878;60.672;2024-02-15T08:14:10;29.55;;;16.33;;
62523;SDS011;53689;56.878;60.672;2024-02-15T08:19:07;27.27;;;17.23;;
62523;SDS011;53689;56.878;60.672;2024-02-15T08:21:36;29.10;;;17.60;;
62523;SDS011;53689;56.878;60.672;2024-02-15T08:24:07;33.42;;;18.38;;
62523;SDS011;53689;56.878;60.672;2024-02-15T08:26:36;28.10;;;17.98;;
62523;SDS011;53689;56.878;60.672;2024-02-15T08:29:04;29.98;;;18.65;;
62523;SDS011;53689;56.878;60.672;2024-02-15T08:31:32;27.25;;;17.40;;
62523;SDS011;53689;56.878;60.672;2024-02-15T08:34:01;29.58;;;17.42;;
62523;SDS011;53689;56.878;60.672;2024-02-15T08:36:30;29.10;;;17.20;;
62523;SDS011;53689;56.878;60.672;2024-02-15T08:38:58;26.10;;;16.45;;
62523;SDS011;53689;56.878;60.672;2024-02-15T08:41:27;30.65;;;16.88;;
62523;SDS011;53689;56.878;60.672;2024-02-15T08:43:56;25.52;;;15.52;;
62523;SDS011;53689;56.878;60.672;2024-02-15T08:46:24;28.73;;;16.52;;
62523;SDS011;53689;56.878;60.672;2024-02-15T08:48:52;27.17;;;17.08;;
62523;SDS011;53689;56.878;60.672;2024-02-15T08:51:20;27.42;;;17.08;;
62523;SDS011;53689;56.878;60.672;2024-02-15T08:53:51;27.75;;;17.05;;
62523;SDS011;53689;56.878;60.672;2024-02-15T08:56:19;27.02;;;15.77;;
62523;SDS011;53689;56.878;60.672;2024-02-15T08:58:48;84.05;;;69.00;;
62523;SDS011;53689;56.878;60.672;2024-02-15T09:01:16;28.52;;;18.35;;
62523;SDS011;53689;56.878;60.672;2024-02-15T09:03:44;29.08;;;17.55;;
62523;SDS011;53689;56.878;60.672;2024-02-15T09:06:13;31.50;;;21.50;;
62523;SDS011;53689;56.878;60.672;2024-02-15T09:08:41;34.72;;;20.33;;
62523;SDS011;53689;56.878;60.672;2024-02-15T09:11:09;31.10;;;19.73;;
62523;SDS011;53689;56.878;60.672;2024-02-15T09:13:36;30.75;;;20.15;;
62523;SDS011;53689;56.878;60.672;2024-02-15T09:16:06;28.63;;;19.55;;
62523;SDS011;53689;56.878;60.672;2024-02-15T09:18:35;31.88;;;19.38;;
62523;SDS011;53689;56.878;60.672;2024-02-15T09:21:03;30.27;;;19.15;;
62523;SDS011;53689;56.878;60.672;2024-02-15T09:23:31;30.48;;;21.65;;
62523;SDS011;53689;56.878;60.672;2024-02-15T09:25:59;29.75;;;19.60;;
62523;SDS011;53689;56.878;60.672;2024-02-15T09:28:27;30.42;;;19.30;;
62523;SDS011;53689;56.878;60.672;2024-02-15T09:30:54;26.80;;;17.83;;
62523;SDS011;53689;56.878;60.672;2024-02-15T09:33:25;31.55;;;19.42;;
62523;SDS011;53689;56.878;60.672;2024-02-15T09:35:53;28.08;;;17.90;;
62523;SDS011;53689;56.878;60.672;2024-02-15T09:38:21;30.67;;;17.45;;
62523;SDS011;53689;56.878;60.672;2024-02-15T09:40:49;28.65;;;18.50;;
62523;SDS011;53689;56.878;60.672;2024-02-15T09:43:16;28.08;;;18.17;;
62523;SDS011;53689;56.878;60.672;2024-02-15T09:45:44;26.95;;;17.90;;
62523;SDS011;53689;56.878;60.672;2024-02-15T09:48:14;30.33;;;17.65;;
62523;SDS011;53689;56.878;60.672;2024-02-15T09:50:45;30.23;;;17.58;;
62523;SDS011;53689;56.878;60.672;2024-02-15T09:53:15;28.45;;;17.02;;
62523;SDS011;53689;56.878;60.672;2024-02-15T09:55:42;31.00;;;17.85;;
62523;SDS011;53689;56.878;60.672;2024-02-15T09:58:11;28.45;;;17.60;;
62523;SDS011;53689;56.878;60.672;2024-02-15T10:00:39;26.00;;;15.60;;
62523;SDS011;53689;56.878;60.672;2024-02-15T10:03:08;26.27;;;16.23;;
62523;SDS011;53689;56.878;60.672;2024-02-15T10:05:38;23.95;;;14.75;;
62523;SDS011;53689;56.878;60.672;2024-02-15T10:08:08;33.38;;;15.73;;
62523;SDS011;53689;56.878;60.672;2024-02-15T10:10:36;25.27;;;14.95;;
62523;SDS011;53689;56.878;60.672;2024-02-15T10:13:04;25.35;;;15.02;;
62523;SDS011;53689;56.878;60.672;2024-02-15T10:15:33;30.35;;;17.65;;
62523;SDS011;53689;56.878;60.672;2024-02-15T10:18:04;25.55;;;16.83;;
62523;SDS011;53689;56.878;60.672;2024-02-15T10:20:37;25.52;;;15.35;;
62523;SDS011;53689;56.878;60.672;2024-02-15T10:23:12;31.15;;;15.55;;
62523;SDS011;53689;56.878;60.672;2024-02-15T10:25:41;23.85;;;14.50;;
62523;SDS011;53689;56.878;60.672;2024-02-15T10:28:09;28.00;;;16.10;;
62523;SDS011;53689;56.878;60.672;2024-02-15T10:30:38;27.75;;;17.17;;
62523;SDS011;53689;56.878;60.672;2024-02-15T10:33:08;28.73;;;18.23;;
62523;SDS011;53689;56.878;60.672;2024-02-15T10:35:36;28.10;;;16.90;;
62523;SDS011;53689;56.878;60.672;2024-02-15T10:38:05;27.88;;;16.02;;
62523;SDS011;53689;56.878;60.672;2024-02-15T10:40:35;27.73;;;16.70;;
62523;SDS011;53689;56.878;60.672;2024-02-15T10:43:03;27.00;;;15.48;;
62523;SDS011;53689;56.878;60.672;2024-02-15T10:45:32;22.42;;;14.25;;
62523;SDS011;53689;56.878;60.672;2024-02-15T10:48:02;28.52;;;16.40;;
62523;SDS011;53689;56.878;60.672;2024-02-15T10:50:30;29.42;;;15.60;;
62523;SDS011;53689;56.878;60.672;2024-02-15T10:52:58;25.02;;;14.63;;
62523;SDS011;53689;56.878;60.672;2024-02-15T10:55:31;32.53;;;17.10;;
62523;SDS011;53689;56.878;60.672;2024-02-15T10:58:05;29.33;;;16.20;;
62523;SDS011;53689;56.878;60.672;2024-02-15T11:00:34;33.58;;;18.27;;
62523;SDS011;53689;56.878;60.672;2024-02-15T11:03:02;33.53;;;20.20;;
62523;SDS011;53689;56.878;60.672;2024-02-15T11:05:32;22.63;;;14.73;;
62523;SDS011;53689;56.878;60.672;2024-02-15T11:08:01;26.00;;;15.35;;
62523;SDS011;53689;56.878;60.672;2024-02-15T11:10:30;26.33;;;16.00;;
62523;SDS011;53689;56.878;60.672;2024-02-15T11:13:00;29.40;;;14.38;;
62523;SDS011;53689;56.878;60.672;2024-02-15T11:15:41;25.42;;;13.77;;
62523;SDS011;53689;56.878;60.672;2024-02-15T11:18:11;27.17;;;14.23;;
62523;SDS011;53689;56.878;60.672;2024-02-15T11:20:45;29.92;;;16.55;;
62523;SDS011;53689;56.878;60.672;2024-02-15T11:23:14;32.25;;;17.80;;
62523;SDS011;53689;56.878;60.672;2024-02-15T11:26:03;27.88;;;15.07;;
62523;SDS011;53689;56.878;60.672;2024-02-15T11:28:44;29.70;;;16.23;;
62523;SDS011;53689;56.878;60.672;2024-02-15T11:31:52;31.88;;;17.77;;
62523;SDS011;53689;56.878;60.672;2024-02-15T11:43:47;28.38;;;15.02;;
62523;SDS011;53689;56.878;60.672;2024-02-15T11:46:17;25.98;;;14.00;;
62523;SDS011;53689;56.878;60.672;2024-02-15T11:48:47;29.20;;;13.77;;
62523;SDS011;53689;56.878;60.672;2024-02-15T11:51:24;30.75;;;14.90;;
62523;SDS011;53689;56.878;60.672;2024-02-15T11:54:01;28.40;;;15.48;;
62523;SDS011;53689;56.878;60.672;2024-02-15T11:56:33;24.07;;;13.37;;
62523;SDS011;53689;56.878;60.672;2024-02-15T11:59:18;26.80;;;14.40;;
62523;SDS011;53689;56.878;60.672;2024-02-15T12:01:45;25.85;;;13.90;;
62523;SDS011;53689;56.878;60.672;2024-02-15T12:04:13;21.52;;;12.20;;
62523;SDS011;53689;56.878;60.672;2024-02-15T12:06:42;26.42;;;13.90;;
62523;SDS011;53689;56.878;60.672;2024-02-15T12:09:10;22.88;;;13.52;;
62523;SDS011;53689;56.878;60.672;2024-02-15T12:11:39;30.67;;;12.95;;
62523;SDS011;53689;56.878;60.672;2024-02-15T12:14:12;22.50;;;12.75;;
62523;SDS011;53689;56.878;60.672;2024-02-15T12:16:41;27.40;;;13.90;;
62523;SDS011;53689;56.878;60.672;2024-02-15T12:19:09;27.42;;;14.23;;
62523;SDS011;53689;56.878;60.672;2024-02-15T12:21:37;24.92;;;13.85;;
62523;SDS011;53689;56.878;60.672;2024-02-15T12:24:06;17.13;;;11.68;;
62523;SDS011;53689;56.878;60.672;2024-02-15T12:26:34;21.95;;;12.65;;
62523;SDS011;53689;56.878;60.672;2024-02-15T12:29:03;22.25;;;13.00;;
62523;SDS011;53689;56.878;60.672;2024-02-15T12:31:31;23.58;;;13.60;;
62523;SDS011;53689;56.878;60.672;2024-02-15T12:34:03;25.38;;;13.23;;
62523;SDS011;53689;56.878;60.672;2024-02-15T12:36:32;24.88;;;14.93;;
62523;SDS011;53689;56.878;60.672;2024-02-15T12:39:00;26.02;;;15.27;;
62523;SDS011;53689;56.878;60.672;2024-02-15T12:41:29;22.40;;;12.48;;
62523;SDS011;53689;56.878;60.672;2024-02-15T12:43:57;22.90;;;12.50;;
62523;SDS011;53689;56.878;60.672;2024-02-15T12:46:25;19.42;;;12.23;;
62523;SDS011;53689;56.878;60.672;2024-02-15T12:49:07;75.30;;;16.02;;
62523;SDS011;53689;56.878;60.672;2024-02-15T12:51:37;29.70;;;11.75;;
62523;SDS011;53689;56.878;60.672;2024-02-15T12:54:08;102.10;;;17.17;;
62523;SDS011;53689;56.878;60.672;2024-02-15T12:56:36;118.68;;;17.23;;
62523;SDS011;53689;56.878;60.672;2024-02-15T12:59:04;34.90;;;16.08;;
62523;SDS011;53689;56.878;60.672;2024-02-15T13:01:32;32.70;;;12.40;;
62523;SDS011;53689;56.878;60.672;2024-02-15T13:04:00;27.65;;;11.27;;
62523;SDS011;53689;56.878;60.672;2024-02-15T13:06:30;21.90;;;12.77;;
62523;SDS011;53689;56.878;60.672;2024-02-15T13:08:57;23.50;;;12.65;;
62523;SDS011;53689;56.878;60.672;2024-02-15T13:11:25;23.15;;;11.45;;
62523;SDS011;53689;56.878;60.672;2024-02-15T13:13:54;24.90;;;13.25;;
62523;SDS011;53689;56.878;60.672;2024-02-15T13:16:21;27.48;;;14.13;;
62523;SDS011;53689;56.878;60.672;2024-02-15T13:18:50;21.20;;;12.20;;
62523;SDS011;53689;56.878;60.672;2024-02-15T13:21:18;20.55;;;12.32;;
62523;SDS011;53689;56.878;60.672;2024-02-15T13:23:47;32.67;;;16.27;;
62523;SDS011;53689;56.878;60.672;2024-02-15T13:26:15;26.88;;;14.65;;
62523;SDS011;53689;56.878;60.672;2024-02-15T13:28:43;26.50;;;15.57;;
62523;SDS011;53689;56.878;60.672;2024-02-15T13:31:11;23.77;;;16.80;;
62523;SDS011;53689;56.878;60.672;2024-02-15T13:33:39;25.13;;;13.07;;
62523;SDS011;53689;56.878;60.672;2024-02-15T13:36:07;26.75;;;16.80;;
62523;SDS011;53689;56.878;60.672;2024-02-15T13:38:35;27.38;;;17.50;;
62523;SDS011;53689;56.878;60.672;2024-02-15T13:41:05;26.15;;;15.20;;
62523;SDS011;53689;56.878;60.672;2024-02-15T13:43:33;24.88;;;15.52;;
62523;SDS011;53689;56.878;60.672;2024-02-15T13:46:01;26.00;;;17.58;;
62523;SDS011;53689;56.878;60.672;2024-02-15T13:48:29;23.98;;;15.88;;
62523;SDS011;53689;56.878;60.672;2024-02-15T13:50:58;20.02;;;14.40;;
62523;SDS011;53689;56.878;60.672;2024-02-15T13:53:26;29.65;;;18.40;;
62523;SDS011;53689;56.878;60.672;2024-02-15T13:55:53;24.52;;;17.17;;
62523;SDS011;53689;56.878;60.672;2024-02-15T13:58:23;27.70;;;19.73;;
62523;SDS011;53689;56.878;60.672;2024-02-15T14:00:51;26.05;;;18.77;;
62523;SDS011;53689;56.878;60.672;2024-02-15T14:03:19;36.45;;;28.95;;
62523;SDS011;53689;56.878;60.672;2024-02-15T14:05:47;29.65;;;20.63;;
62523;SDS011;53689;56.878;60.672;2024-02-15T14:08:15;39.63;;;27.33;;
62523;SDS011;53689;56.878;60.672;2024-02-15T14:10:43;45.15;;;35.75;;
62523;SDS011;53689;56.878;60.672;2024-02-15T14:13:11;49.03;;;36.15;;
62523;SDS011;53689;56.878;60.672;2024-02-15T14:15:41;54.67;;;40.00;;
62523;SDS011;53689;56.878;60.672;2024-02-15T14:18:09;52.10;;;42.50;;
62523;SDS011;53689;56.878;60.672;2024-02-15T14:20:38;46.55;;;34.95;;
62523;SDS011;53689;56.878;60.672;2024-02-15T14:23:06;45.42;;;38.90;;
62523;SDS011;53689;56.878;60.672;2024-02-15T14:25:34;48.35;;;41.13;;
62523;SDS011;53689;56.878;60.672;2024-02-15T14:28:02;44.75;;;33.10;;
62523;SDS011;53689;56.878;60.672;2024-02-15T14:30:30;47.80;;;40.33;;
62523;SDS011;53689;56.878;60.672;2024-02-15T14:32:59;50.85;;;36.88;;
62523;SDS011;53689;56.878;60.672;2024-02-15T14:35:32;46.42;;;37.38;;
62523;SDS011;53689;56.878;60.672;2024-02-15T14:38:01;45.27;;;36.63;;
62523;SDS011;53689;56.878;60.672;2024-02-15T14:40:29;41.50;;;35.25;;
62523;SDS011;53689;56.878;60.672;2024-02-15T14:43:12;46.72;;;34.83;;
62523;SDS011;53689;56.878;60.672;2024-02-15T14:45:45;49.20;;;36.97;;
62523;SDS011;53689;56.878;60.672;2024-02-15T14:48:14;39.00;;;32.65;;
62523;SDS011;53689;56.878;60.672;2024-02-15T14:50:43;42.60;;;35.22;;
62523;SDS011;53689;56.878;60.672;2024-02-15T14:53:11;43.25;;;36.90;;
62523;SDS011;53689;56.878;60.672;2024-02-15T14:55:39;42.75;;;34.30;;